Time;durP1;ratioP1;P1;durP2;ratioP2;P2;SDS_P1;SDS_P2;PMS_P1;PMS_P2;Temp;Humidity;BMP_temperature;BMP_pressure;BME280_temperature;BME280_humidity;BME280_pressure;Samples;Min_cycle;Max_cycle;Signal;HPM_P1;HPM_P2
2023/06/13 00:00:09;;;;;;;;;;;25.00;43.00;;;;;;5049618;28;19928;-75
2023/06/13 00:02:37;;;;;;;;;;;24.90;43.10;;;;;;5049365;28;19929;-75
2023/06/13 00:05:04;;;;;;;;;;;24.90;43.30;;;;;;5057684;28;19929;-75
2023/06/13 00:07:31;;;;;;;;;;;24.80;43.20;;;;;;5052255;28;19928;-75
2023/06/13 00:09:58;;;;;;;;;;;24.80;43.30;;;;;;5054099;28;20402;-75
2023/06/13 00:12:26;;;;;;;;;;;24.70;43.20;;;;;;5048957;28;19928;-75
2023/06/13 00:14:53;;;;;;;;;;;24.70;43.40;;;;;;5052898;28;19928;-76
2023/06/13 00:17:22;;;;;;;;;;;24.60;43.40;;;;;;5052228;28;19932;-75
2023/06/13 00:19:49;;;;;;;;;;;24.60;43.40;;;;;;5049269;28;20478;-76
2023/06/13 00:22:15;;;;;;;;;;;24.50;43.60;;;;;;5052224;28;19971;-76
2023/06/13 00:24:42;;;;;;;;;;;24.50;43.60;;;;;;5051039;28;19950;-75
2023/06/13 00:27:08;;;;;;;;;;;24.40;43.50;;;;;;5050764;28;19931;-75
2023/06/13 00:29:36;;;;;;;;;;;24.40;43.60;;;;;;5054075;28;19933;-75
2023/06/13 00:32:03;;;;;;;;;;;24.30;43.70;;;;;;5052074;28;19925;-75
2023/06/13 00:34:29;;;;;;;;;;;24.30;43.80;;;;;;5047453;28;19928;-75
2023/06/13 00:36:57;;;;;;;;;;;24.20;44.00;;;;;;5046025;28;21702;-75
2023/06/13 00:39:23;;;;;;;;;;;24.20;44.20;;;;;;5044329;28;20543;-75
2023/06/13 00:41:50;;;;;;;;;;;24.20;44.40;;;;;;5045661;28;19936;-77
2023/06/13 00:44:17;;;;;;;;;;;24.10;44.30;;;;;;5044362;28;20023;-75
2023/06/13 00:46:46;;;;;;;;;;;24.10;44.20;;;;;;5042159;28;19929;-75
2023/06/13 00:49:13;;;;;;;;;;;24.00;44.20;;;;;;5044726;28;19932;-76
2023/06/13 00:51:41;;;;;;;;;;;24.00;44.20;;;;;;5045940;28;19971;-75
2023/06/13 00:54:10;;;;;;;;;;;23.90;44.20;;;;;;5047062;28;19932;-77
2023/06/13 00:56:37;;;;;;;;;;;23.90;44.40;;;;;;5045459;28;19935;-77
2023/06/13 00:59:04;;;;;;;;;;;23.80;44.50;;;;;;5044420;28;19935;-75
2023/06/13 01:01:31;;;;;;;;;;;23.80;44.70;;;;;;5042339;28;19944;-75
2023/06/13 01:03:59;;;;;;;;;;;23.70;44.80;;;;;;5040097;28;20349;-75
2023/06/13 01:06:28;;;;;;;;;;;23.70;44.60;;;;;;5041181;28;19935;-75
2023/06/13 01:08:58;;;;;;;;;;;23.60;44.80;;;;;;5054604;28;19929;-74
2023/06/13 01:11:29;;;;;;;;;;;23.60;44.80;;;;;;5050296;28;19940;-75
2023/06/13 01:14:00;;;;;;;;;;;23.60;45.00;;;;;;5054514;28;20529;-75
2023/06/13 01:16:33;;;;;;;;;;;23.50;45.00;;;;;;5053215;28;19928;-75
2023/06/13 01:19:03;;;;;;;;;;;23.50;45.20;;;;;;5050159;28;20055;-75
2023/06/13 01:21:31;;;;;;;;;;;23.40;45.00;;;;;;5053624;28;19936;-76
2023/06/13 01:24:00;;;;;;;;;;;23.40;45.10;;;;;;5051292;28;19974;-74
2023/06/13 01:26:33;;;;;;;;;;;23.40;45.10;;;;;;5054274;28;19929;-75
2023/06/13 01:29:03;;;;;;;;;;;23.30;45.20;;;;;;5048531;28;19958;-75
2023/06/13 01:31:31;;;;;;;;;;;23.30;45.00;;;;;;5048043;28;20146;-76
2023/06/13 01:33:57;;;;;;;;;;;23.30;45.30;;;;;;5048076;28;19974;-75
2023/06/13 01:36:24;;;;;;;;;;;23.20;45.80;;;;;;5048297;28;19986;-75
2023/06/13 01:38:51;;;;;;;;;;;23.20;45.30;;;;;;5048372;28;19998;-75
2023/06/13 01:41:17;;;;;;;;;;;23.10;45.60;;;;;;5047109;28;19929;-75
2023/06/13 01:43:44;;;;;;;;;;;23.10;45.70;;;;;;5051555;28;19928;-75
2023/06/13 01:46:16;;;;;;;;;;;23.00;45.50;;;;;;5055033;28;20440;-75
2023/06/13 01:48:48;;;;;;;;;;;23.00;45.50;;;;;;5052034;28;19982;-77
2023/06/13 01:51:16;;;;;;;;;;;23.00;45.60;;;;;;5046625;28;19935;-75
2023/06/13 01:53:45;;;;;;;;;;;23.00;45.50;;;;;;5046783;28;19990;-76
2023/06/13 01:56:16;;;;;;;;;;;22.90;45.60;;;;;;5053004;28;20351;-76
2023/06/13 01:58:47;;;;;;;;;;;22.90;45.60;;;;;;5047924;28;19928;-75
2023/06/13 02:01:15;;;;;;;;;;;22.80;45.50;;;;;;5047329;28;20673;-75
2023/06/13 02:03:42;;;;;;;;;;;22.80;45.80;;;;;;5044580;28;20069;-74
2023/06/13 02:06:08;;;;;;;;;;;22.70;46.00;;;;;;5046192;28;19937;-75
2023/06/13 02:08:35;;;;;;;;;;;22.70;45.80;;;;;;5053665;28;19928;-75
2023/06/13 02:11:02;;;;;;;;;;;22.60;46.00;;;;;;5051454;28;19932;-75
2023/06/13 02:13:28;;;;;;;;;;;22.60;45.90;;;;;;5050270;28;20386;-75
2023/06/13 02:15:55;;;;;;;;;;;22.60;46.00;;;;;;5052163;28;19936;-74
2023/06/13 02:18:23;;;;;;;;;;;22.50;45.90;;;;;;5049737;28;20022;-75
2023/06/13 02:20:49;;;;;;;;;;;22.50;45.80;;;;;;5052617;28;19929;-75
2023/06/13 02:23:17;;;;;;;;;;;22.40;45.80;;;;;;5050943;28;19940;-75
2023/06/13 02:25:45;;;;;;;;;;;22.40;46.00;;;;;;5050407;28;20847;-76
2023/06/13 02:28:12;;;;;;;;;;;22.40;46.10;;;;;;5050963;28;19968;-74
2023/06/13 02:30:38;;;;;;;;;;;22.40;46.20;;;;;;5051760;28;19947;-75
2023/06/13 02:33:05;;;;;;;;;;;22.30;46.20;;;;;;5053745;28;19949;-75
2023/06/13 02:35:33;;;;;;;;;;;22.30;46.30;;;;;;5050862;28;19935;-75
2023/06/13 02:37:59;;;;;;;;;;;22.20;46.30;;;;;;5045223;28;19987;-75
2023/06/13 02:40:26;;;;;;;;;;;22.20;46.30;;;;;;5048315;28;19940;-74
2023/06/13 02:42:54;;;;;;;;;;;22.20;46.40;;;;;;5046045;28;19951;-74
2023/06/13 02:45:20;;;;;;;;;;;22.20;46.50;;;;;;5047890;28;19929;-76
2023/06/13 02:47:47;;;;;;;;;;;22.10;46.60;;;;;;5053197;28;19982;-75
2023/06/13 02:50:14;;;;;;;;;;;22.10;46.60;;;;;;5053384;28;19974;-75
2023/06/13 02:52:41;;;;;;;;;;;22.00;46.50;;;;;;5051736;28;19936;-75
2023/06/13 02:55:10;;;;;;;;;;;22.00;46.70;;;;;;5053492;28;19925;-75
2023/06/13 02:57:37;;;;;;;;;;;21.90;46.70;;;;;;5052878;28;20157;-74
2023/06/13 03:00:07;;;;;;;;;;;21.90;46.80;;;;;;5054592;28;19929;-75
2023/06/13 03:02:36;;;;;;;;;;;21.90;46.80;;;;;;5056489;28;20017;-75
2023/06/13 03:05:03;;;;;;;;;;;21.90;46.90;;;;;;5057538;28;20478;-75
2023/06/13 03:07:31;;;;;;;;;;;21.80;46.90;;;;;;5049240;28;19932;-75
2023/06/13 03:09:59;;;;;;;;;;;21.80;47.00;;;;;;5045040;28;19929;-76
2023/06/13 03:12:26;;;;;;;;;;;21.70;46.90;;;;;;5044936;28;20202;-75
2023/06/13 03:14:52;;;;;;;;;;;21.70;47.10;;;;;;5049214;28;20290;-76
2023/06/13 03:17:19;;;;;;;;;;;21.70;47.10;;;;;;5048758;28;19928;-74
2023/06/13 03:19:45;;;;;;;;;;;21.60;47.00;;;;;;5050094;28;20480;-75
2023/06/13 03:22:13;;;;;;;;;;;21.60;47.10;;;;;;5046975;28;19986;-76
2023/06/13 03:24:40;;;;;;;;;;;21.60;47.10;;;;;;5047315;28;19939;-75
2023/06/13 03:27:09;;;;;;;;;;;21.50;47.10;;;;;;5050651;28;20449;-74
2023/06/13 03:29:36;;;;;;;;;;;21.50;47.10;;;;;;5047879;28;19935;-75
2023/06/13 03:32:02;;;;;;;;;;;21.50;47.70;;;;;;5048166;28;19937;-75
2023/06/13 03:34:31;;;;;;;;;;;21.40;47.20;;;;;;5047417;28;19928;-75
2023/06/13 03:37:03;;;;;;;;;;;21.40;47.20;;;;;;5044180;28;19928;-75
2023/06/13 03:39:29;;;;;;;;;;;21.40;47.20;;;;;;5045676;28;19929;-75
2023/06/13 03:41:56;;;;;;;;;;;21.30;47.20;;;;;;5049601;28;19932;-75
2023/06/13 03:44:24;;;;;;;;;;;21.30;47.20;;;;;;5053963;28;19974;-75
2023/06/13 03:46:50;;;;;;;;;;;21.30;47.40;;;;;;5048649;28;19936;-75
2023/06/13 03:49:18;;;;;;;;;;;21.20;47.40;;;;;;5051940;28;20041;-75
2023/06/13 03:51:45;;;;;;;;;;;21.20;47.40;;;;;;5053633;28;19932;-76
2023/06/13 03:54:11;;;;;;;;;;;21.20;47.50;;;;;;5054051;28;19974;-75
2023/06/13 03:56:38;;;;;;;;;;;21.10;47.50;;;;;;5057418;28;19981;-74
2023/06/13 03:59:04;;;;;;;;;;;21.10;47.50;;;;;;5057259;28;19929;-74
2023/06/13 04:01:32;;;;;;;;;;;21.10;47.70;;;;;;5053831;28;20360;-75
2023/06/13 04:03:59;;;;;;;;;;;21.10;47.70;;;;;;5054716;28;20890;-75
2023/06/13 04:06:26;;;;;;;;;;;21.00;47.70;;;;;;5055120;28;19929;-75
2023/06/13 04:08:52;;;;;;;;;;;21.00;47.80;;;;;;5049914;28;20428;-75
2023/06/13 04:11:19;;;;;;;;;;;21.00;47.90;;;;;;5053278;28;19928;-75
2023/06/13 04:13:45;;;;;;;;;;;21.00;47.90;;;;;;5052278;28;19929;-75
2023/06/13 04:16:12;;;;;;;;;;;21.00;48.00;;;;;;5055200;28;20302;-75
2023/06/13 04:18:40;;;;;;;;;;;20.90;48.00;;;;;;5049476;28;19932;-74
2023/06/13 04:21:08;;;;;;;;;;;20.90;48.10;;;;;;5055980;28;19997;-75
2023/06/13 04:23:34;;;;;;;;;;;20.90;48.10;;;;;;5055190;28;19932;-74
2023/06/13 04:26:03;;;;;;;;;;;20.80;48.10;;;;;;5051879;28;19932;-75
2023/06/13 04:28:30;;;;;;;;;;;20.80;48.30;;;;;;5047685;28;20017;-75
2023/06/13 04:30:57;;;;;;;;;;;20.80;48.30;;;;;;5050058;28;19936;-74
2023/06/13 04:33:24;;;;;;;;;;;20.70;48.30;;;;;;5055064;28;19925;-74
2023/06/13 04:35:54;;;;;;;;;;;20.70;48.40;;;;;;5048148;28;19925;-75
2023/06/13 04:38:21;;;;;;;;;;;20.70;48.50;;;;;;5045646;28;19929;-74
2023/06/13 04:40:48;;;;;;;;;;;20.70;48.50;;;;;;5052320;28;19924;-76
2023/06/13 04:43:15;;;;;;;;;;;20.70;48.60;;;;;;5051477;28;20014;-75
2023/06/13 04:45:43;;;;;;;;;;;20.60;48.60;;;;;;5055789;28;19929;-75
2023/06/13 04:48:10;;;;;;;;;;;20.60;48.60;;;;;;5055390;28;20379;-74
2023/06/13 04:50:37;;;;;;;;;;;20.60;48.70;;;;;;5053631;28;20811;-75
2023/06/13 04:53:07;;;;;;;;;;;20.60;48.80;;;;;;5058385;28;19939;-75
2023/06/13 04:55:35;;;;;;;;;;;20.50;48.80;;;;;;5054555;28;20466;-75
2023/06/13 04:58:02;;;;;;;;;;;20.50;48.80;;;;;;5055484;28;19976;-75
2023/06/13 05:00:29;;;;;;;;;;;20.50;48.80;;;;;;5051654;28;20391;-76
2023/06/13 05:02:56;;;;;;;;;;;20.50;48.90;;;;;;5047335;28;19973;-75
2023/06/13 05:05:23;;;;;;;;;;;20.50;49.00;;;;;;5046408;28;19929;-76
2023/06/13 05:07:55;;;;;;;;;;;20.50;49.00;;;;;;5044955;28;20031;-76
2023/06/13 05:10:24;;;;;;;;;;;20.40;49.00;;;;;;5046481;28;19940;-75
2023/06/13 05:12:50;;;;;;;;;;;20.40;49.00;;;;;;5045638;28;20019;-74
2023/06/13 05:15:18;;;;;;;;;;;20.40;49.10;;;;;;5042417;28;19997;-75
2023/06/13 05:17:46;;;;;;;;;;;20.40;49.20;;;;;;5045426;28;20021;-75
2023/06/13 05:20:14;;;;;;;;;;;20.40;49.20;;;;;;5042936;28;19932;-75
2023/06/13 05:22:41;;;;;;;;;;;20.40;49.20;;;;;;5046523;28;21114;-75
2023/06/13 05:25:09;;;;;;;;;;;20.40;49.20;;;;;;5044977;28;19932;-74
2023/06/13 05:27:37;;;;;;;;;;;20.40;49.20;;;;;;5045444;28;19929;-75
2023/06/13 05:30:04;;;;;;;;;;;20.30;49.30;;;;;;5047923;28;19955;-74
2023/06/13 05:32:30;;;;;;;;;;;20.30;49.30;;;;;;5042602;28;19932;-74
2023/06/13 05:34:57;;;;;;;;;;;20.30;49.30;;;;;;5046642;28;20383;-75
2023/06/13 05:37:24;;;;;;;;;;;20.20;49.70;;;;;;5048843;28;19964;-76
2023/06/13 05:39:50;;;;;;;;;;;20.10;50.20;;;;;;5048374;28;20274;-76
2023/06/13 05:42:17;;;;;;;;;;;20.10;50.50;;;;;;5046578;28;19929;-77
2023/06/13 05:44:45;;;;;;;;;;;20.00;50.50;;;;;;5056062;28;19975;-75
2023/06/13 05:47:11;;;;;;;;;;;20.10;50.50;;;;;;5057943;28;19936;-75
2023/06/13 05:49:38;;;;;;;;;;;20.10;50.50;;;;;;5052991;28;20003;-75
2023/06/13 05:52:05;;;;;;;;;;;20.10;50.40;;;;;;5055411;28;19933;-76
2023/06/13 05:54:31;;;;;;;;;;;20.10;50.30;;;;;;5047445;28;20257;-76
2023/06/13 05:56:59;;;;;;;;;;;20.10;50.30;;;;;;5058272;28;19928;-75
2023/06/13 05:59:25;;;;;;;;;;;20.10;50.30;;;;;;5053264;28;19929;-75
2023/06/13 06:01:53;;;;;;;;;;;20.10;50.40;;;;;;5060486;28;20348;-76
2023/06/13 06:04:20;;;;;;;;;;;20.10;50.40;;;;;;5049959;28;20483;-76
2023/06/13 06:06:46;;;;;;;;;;;20.10;50.30;;;;;;5049844;28;19932;-76
2023/06/13 06:09:13;;;;;;;;;;;20.10;50.20;;;;;;5049034;28;19929;-77
2023/06/13 06:11:40;;;;;;;;;;;20.10;50.30;;;;;;5056575;28;19936;-75
2023/06/13 06:14:06;;;;;;;;;;;20.10;50.30;;;;;;5048757;28;19929;-75
2023/06/13 06:16:33;;;;;;;;;;;20.10;50.30;;;;;;5055557;28;19978;-76
2023/06/13 06:19:01;;;;;;;;;;;20.10;50.70;;;;;;5052979;28;19929;-76
2023/06/13 06:21:28;;;;;;;;;;;20.10;50.70;;;;;;5055762;28;19928;-75
2023/06/13 06:23:54;;;;;;;;;;;20.20;50.90;;;;;;5054326;28;19939;-75
2023/06/13 06:26:22;;;;;;;;;;;20.20;51.00;;;;;;5040619;28;20085;-77
2023/06/13 06:28:49;;;;;;;;;;;20.30;50.80;;;;;;5030891;28;19958;-75
2023/06/13 06:31:16;;;;;;;;;;;20.40;50.60;;;;;;5043770;28;19928;-75
2023/06/13 06:33:42;;;;;;;;;;;20.50;50.40;;;;;;5037000;28;19932;-75
2023/06/13 06:36:10;;;;;;;;;;;20.50;50.20;;;;;;5042480;28;19974;-73
2023/06/13 06:38:37;;;;;;;;;;;20.60;50.10;;;;;;5038555;28;19932;-74
2023/06/13 06:41:03;;;;;;;;;;;20.60;49.90;;;;;;5036427;28;19932;-75
2023/06/13 06:43:30;;;;;;;;;;;20.70;49.80;;;;;;5041498;28;19936;-75
2023/06/13 06:45:56;;;;;;;;;;;20.80;49.60;;;;;;5039121;28;19937;-74
2023/06/13 06:48:23;;;;;;;;;;;20.80;49.50;;;;;;5038588;28;20033;-76
2023/06/13 06:50:49;;;;;;;;;;;20.90;49.40;;;;;;5036578;28;19936;-74
2023/06/13 06:53:17;;;;;;;;;;;20.90;49.30;;;;;;5043775;28;19924;-75
2023/06/13 06:55:44;;;;;;;;;;;21.00;49.20;;;;;;5047507;28;19936;-75
2023/06/13 06:58:10;;;;;;;;;;;21.00;49.00;;;;;;5048548;28;19989;-74
2023/06/13 07:00:37;;;;;;;;;;;21.00;48.80;;;;;;5054596;28;19932;-74
2023/06/13 07:03:04;;;;;;;;;;;21.00;48.60;;;;;;5049378;28;20036;-74
2023/06/13 07:05:30;;;;;;;;;;;21.10;48.40;;;;;;5060299;28;19929;-74
2023/06/13 07:07:57;;;;;;;;;;;21.10;48.00;;;;;;5058365;28;19932;-75
2023/06/13 07:10:26;;;;;;;;;;;21.10;47.80;;;;;;5056468;28;20458;-75
2023/06/13 07:12:52;;;;;;;;;;;21.10;47.70;;;;;;5046913;28;19932;-74
2023/06/13 07:15:19;;;;;;;;;;;21.20;47.60;;;;;;5055074;28;19929;-74
2023/06/13 07:17:46;;;;;;;;;;;21.20;47.30;;;;;;5053813;28;20485;-74
2023/06/13 07:20:12;;;;;;;;;;;21.20;47.00;;;;;;5055705;28;19933;-75
2023/06/13 07:22:39;;;;;;;;;;;21.20;46.80;;;;;;5051710;28;20057;-74
2023/06/13 07:25:06;;;;;;;;;;;21.20;46.60;;;;;;5046959;28;20524;-74
2023/06/13 07:27:34;;;;;;;;;;;21.30;46.50;;;;;;5047026;28;20410;-74
2023/06/13 07:30:00;;;;;;;;;;;21.30;46.40;;;;;;5050456;28;20498;-75
2023/06/13 07:32:27;;;;;;;;;;;21.30;46.50;;;;;;5045598;28;20049;-74
2023/06/13 07:34:53;;;;;;;;;;;21.30;46.20;;;;;;5044644;28;23609;-75
2023/06/13 07:37:20;;;;;;;;;;;21.30;46.20;;;;;;5046866;28;20390;-74
2023/06/13 07:39:47;;;;;;;;;;;21.30;45.90;;;;;;5049277;28;20074;-75
2023/06/13 07:42:13;;;;;;;;;;;21.40;45.80;;;;;;5043903;28;20755;-74
2023/06/13 07:44:41;;;;;;;;;;;21.40;45.70;;;;;;5047255;28;19928;-74
2023/06/13 07:47:08;;;;;;;;;;;21.40;45.60;;;;;;5049228;28;19968;-74
2023/06/13 07:49:34;;;;;;;;;;;21.40;45.50;;;;;;5046257;28;19932;-74
2023/06/13 07:52:01;;;;;;;;;;;21.40;45.60;;;;;;5042777;28;19928;-75
2023/06/13 07:54:27;;;;;;;;;;;21.40;45.40;;;;;;5047889;28;19928;-76
2023/06/13 07:56:54;;;;;;;;;;;21.50;45.50;;;;;;5047551;28;20306;-74
2023/06/13 07:59:20;;;;;;;;;;;21.50;45.40;;;;;;5048598;28;19995;-74
2023/06/13 08:01:48;;;;;;;;;;;21.50;45.40;;;;;;5049249;28;19935;-76
2023/06/13 08:04:15;;;;;;;;;;;21.50;45.40;;;;;;5044315;28;19928;-75
2023/06/13 08:06:42;;;;;;;;;;;21.50;45.50;;;;;;5048644;28;19960;-75
2023/06/13 08:09:09;;;;;;;;;;;21.50;45.60;;;;;;5045831;28;19943;-74
2023/06/13 08:11:35;;;;;;;;;;;21.60;45.40;;;;;;5042705;28;19929;-74
2023/06/13 08:14:02;;;;;;;;;;;21.60;45.20;;;;;;5047180;28;19932;-74
2023/06/13 08:16:28;;;;;;;;;;;21.60;45.10;;;;;;5051503;28;19929;-75
2023/06/13 08:18:56;;;;;;;;;;;21.60;45.10;;;;;;5049225;28;20458;-74
2023/06/13 08:21:23;;;;;;;;;;;21.60;45.00;;;;;;5055248;28;19933;-74
2023/06/13 08:23:51;;;;;;;;;;;21.70;45.00;;;;;;5045241;28;19936;-75
2023/06/13 08:26:17;;;;;;;;;;;21.70;45.00;;;;;;5051646;28;20705;-76
2023/06/13 08:28:44;;;;;;;;;;;21.70;44.90;;;;;;5036536;28;20321;-74
2023/06/13 08:31:10;;;;;;;;;;;21.70;44.80;;;;;;5049105;28;19928;-74
2023/06/13 08:33:38;;;;;;;;;;;21.70;44.80;;;;;;5048480;28;20014;-73
2023/06/13 08:36:06;;;;;;;;;;;21.80;44.60;;;;;;5043025;28;20383;-75
2023/06/13 08:38:33;;;;;;;;;;;21.80;44.40;;;;;;5042028;28;19974;-73
2023/06/13 08:41:00;;;;;;;;;;;21.90;44.30;;;;;;5054735;28;19971;-74
2023/06/13 08:43:27;;;;;;;;;;;21.80;44.20;;;;;;5048178;28;19928;-74
2023/06/13 08:45:53;;;;;;;;;;;21.90;44.30;;;;;;5040854;28;20517;-75
2023/06/13 08:48:20;;;;;;;;;;;21.90;44.20;;;;;;5052395;28;19932;-75
2023/06/13 08:50:46;;;;;;;;;;;22.00;42.10;;;;;;5050232;28;20283;-76
2023/06/13 08:53:17;;;;;;;;;;;22.00;42.20;;;;;;5049960;28;19981;-76
2023/06/13 08:55:43;;;;;;;;;;;22.00;42.60;;;;;;5053726;28;19936;-76
2023/06/13 08:58:11;;;;;;;;;;;22.00;42.80;;;;;;5050176;28;19928;-76
2023/06/13 09:00:38;;;;;;;;;;;21.90;42.90;;;;;;5029061;28;19928;-77
2023/06/13 09:03:09;;;;;;;;;;;21.90;43.10;;;;;;5031058;28;20023;-78
2023/06/13 09:05:35;;;;;;;;;;;21.90;43.20;;;;;;5030661;28;20395;-75
2023/06/13 09:08:02;;;;;;;;;;;21.80;43.10;;;;;;5034706;28;19933;-75
2023/06/13 09:10:30;;;;;;;;;;;21.90;43.30;;;;;;5033261;28;20673;-78
2023/06/13 09:12:57;;;;;;;;;;;21.90;43.50;;;;;;5029597;28;20341;-76
2023/06/13 09:15:24;;;;;;;;;;;21.80;43.40;;;;;;5032953;28;20315;-78
2023/06/13 09:17:53;;;;;;;;;;;21.90;43.40;;;;;;5034972;28;20186;-75
2023/06/13 09:20:20;;;;;;;;;;;21.90;43.40;;;;;;5029212;28;20011;-78
2023/06/13 09:22:47;;;;;;;;;;;21.90;43.50;;;;;;5027738;28;19977;-77
2023/06/13 09:25:16;;;;;;;;;;;21.90;43.30;;;;;;5031335;28;19928;-76
2023/06/13 09:27:44;;;;;;;;;;;21.90;43.30;;;;;;5032545;28;21585;-79
2023/06/13 09:30:14;;;;;;;;;;;22.00;43.30;;;;;;5033389;28;19936;-78
2023/06/13 09:32:43;;;;;;;;;;;22.00;43.20;;;;;;5034037;28;19932;-77
2023/06/13 09:35:10;;;;;;;;;;;22.10;43.10;;;;;;5030217;28;19937;-76
2023/06/13 09:37:37;;;;;;;;;;;22.10;43.00;;;;;;5038491;28;19933;-77
2023/06/13 09:40:08;;;;;;;;;;;22.20;43.20;;;;;;5030995;28;19929;-76
2023/06/13 09:42:35;;;;;;;;;;;22.20;43.20;;;;;;5036686;28;19933;-76
2023/06/13 09:45:06;;;;;;;;;;;22.20;43.10;;;;;;5032209;28;19932;-77
2023/06/13 09:47:34;;;;;;;;;;;22.30;43.20;;;;;;5034626;28;19932;-76
2023/06/13 09:50:01;;;;;;;;;;;22.30;42.70;;;;;;5038722;28;20039;-75
2023/06/13 09:52:30;;;;;;;;;;;22.40;42.80;;;;;;5039036;28;19936;-79
2023/06/13 09:54:57;;;;;;;;;;;22.40;42.70;;;;;;5042646;28;19935;-77
2023/06/13 09:57:23;;;;;;;;;;;22.50;42.70;;;;;;5043436;28;19943;-78
2023/06/13 09:59:51;;;;;;;;;;;22.50;42.40;;;;;;5054951;28;19928;-77
2023/06/13 10:02:20;;;;;;;;;;;22.60;42.50;;;;;;5052364;28;19968;-78
2023/06/13 10:04:49;;;;;;;;;;;22.70;42.40;;;;;;5055696;28;20429;-77
2023/06/13 10:07:16;;;;;;;;;;;22.70;42.50;;;;;;5056274;28;19932;-78
2023/06/13 10:09:43;;;;;;;;;;;22.80;42.30;;;;;;5057795;28;19932;-77
2023/06/13 10:12:12;;;;;;;;;;;22.80;42.10;;;;;;5054405;28;20007;-78
2023/06/13 10:14:41;;;;;;;;;;;22.90;41.90;;;;;;5036023;28;19932;-79
2023/06/13 10:17:11;;;;;;;;;;;23.00;41.70;;;;;;5040342;28;19925;-78
2023/06/13 10:19:40;;;;;;;;;;;23.10;41.70;;;;;;5042215;28;20676;-77
2023/06/13 10:22:07;;;;;;;;;;;23.10;41.60;;;;;;5038620;28;19936;-76
2023/06/13 10:24:34;;;;;;;;;;;23.20;41.20;;;;;;5038686;28;19982;-77
2023/06/13 10:27:02;;;;;;;;;;;23.30;41.30;;;;;;5040213;28;19933;-79
2023/06/13 10:29:47;;;;;;;;;;;23.40;41.10;;;;;;5037419;28;19974;-77
2023/06/13 10:32:23;;;;;;;;;;;23.40;41.10;;;;;;5037564;28;19990;-78
2023/06/13 10:35:02;;;;;;;;;;;23.50;40.90;;;;;;5038786;28;20944;-76
2023/06/13 10:37:38;;;;;;;;;;;23.50;41.10;;;;;;5039530;28;19925;-78
2023/06/13 10:40:21;;;;;;;;;;;23.60;41.50;;;;;;5041226;28;20412;-79
2023/06/13 10:42:52;;;;;;;;;;;23.60;41.50;;;;;;5039593;28;19940;-79
2023/06/13 10:45:21;;;;;;;;;;;23.80;41.50;;;;;;5038400;28;20509;-77
2023/06/13 10:47:48;;;;;;;;;;;23.80;41.00;;;;;;5038701;28;20484;-78
2023/06/13 10:50:16;;;;;;;;;;;23.90;40.80;;;;;;5039471;28;20324;-77
2023/06/13 10:52:43;;;;;;;;;;;24.00;40.20;;;;;;5047270;28;19934;-78
2023/06/13 10:55:13;;;;;;;;;;;24.00;39.50;;;;;;5058688;28;20699;-77
2023/06/13 10:57:49;;;;;;;;;;;24.10;39.70;;;;;;5053464;28;19954;-77
2023/06/13 11:00:25;;;;;;;;;;;24.10;40.10;;;;;;5057419;28;19935;-77
2023/06/13 11:02:57;;;;;;;;;;;24.20;39.80;;;;;;5049983;28;20674;-79
2023/06/13 11:05:26;;;;;;;;;;;24.30;39.50;;;;;;5049449;28;20005;-80
2023/06/13 11:07:53;;;;;;;;;;;24.30;39.50;;;;;;5052377;28;19936;-77
2023/06/13 11:10:20;;;;;;;;;;;24.30;39.40;;;;;;5049402;28;19932;-77
2023/06/13 11:12:47;;;;;;;;;;;24.40;39.80;;;;;;5055514;28;20607;-79
2023/06/13 11:15:23;;;;;;;;;;;24.50;39.40;;;;;;5051062;28;19936;-77
2023/06/13 11:18:16;;;;;;;;;;;24.50;38.80;;;;;;5056552;28;19936;-78
2023/06/13 11:20:49;;;;;;;;;;;24.60;39.20;;;;;;5057814;28;20021;-78
2023/06/13 11:23:16;;;;;;;;;;;24.70;38.70;;;;;;5046498;28;19942;-77
2023/06/13 11:25:44;;;;;;;;;;;24.70;38.70;;;;;;5047243;28;19936;-77
2023/06/13 11:28:10;;;;;;;;;;;24.80;38.70;;;;;;5044330;28;20399;-79
2023/06/13 11:30:37;;;;;;;;;;;24.90;38.40;;;;;;5045770;28;19936;-78
2023/06/13 11:33:04;;;;;;;;;;;24.90;38.00;;;;;;5044945;28;19932;-77
2023/06/13 11:35:32;;;;;;;;;;;24.90;37.80;;;;;;5041497;28;20294;-80
2023/06/13 11:38:05;;;;;;;;;;;25.00;38.40;;;;;;5044955;28;20404;-78
2023/06/13 11:40:35;;;;;;;;;;;25.00;38.00;;;;;;5046858;28;20007;-79
2023/06/13 11:43:01;;;;;;;;;;;25.10;38.20;;;;;;5044700;28;19939;-78
2023/06/13 11:45:28;;;;;;;;;;;25.10;38.50;;;;;;5042152;28;19933;-78
2023/06/13 11:47:57;;;;;;;;;;;25.20;38.60;;;;;;5045870;28;19958;-77
2023/06/13 11:50:24;;;;;;;;;;;25.20;38.70;;;;;;5042172;28;19940;-77
2023/06/13 11:53:03;;;;;;;;;;;25.30;38.80;;;;;;5051130;28;20473;-77
2023/06/13 11:55:30;;;;;;;;;;;25.40;39.00;;;;;;5056142;28;19986;-77
2023/06/13 11:57:56;;;;;;;;;;;25.40;38.40;;;;;;5053879;28;19995;-77
2023/06/13 12:00:26;;;;;;;;;;;25.50;38.70;;;;;;5054868;28;19934;-77
2023/06/13 12:02:52;;;;;;;;;;;25.50;38.40;;;;;;5050833;28;19932;-76
2023/06/13 12:05:19;;;;;;;;;;;25.60;37.90;;;;;;5050446;28;20431;-78
2023/06/13 12:07:45;;;;;;;;;;;25.60;37.80;;;;;;5053197;28;20658;-77
2023/06/13 12:10:13;;;;;;;;;;;25.60;38.10;;;;;;5048522;28;19932;-79
2023/06/13 12:12:40;;;;;;;;;;;25.70;37.90;;;;;;5051139;28;19928;-78
2023/06/13 12:15:13;;;;;;;;;;;25.70;37.90;;;;;;5051464;28;19939;-77
2023/06/13 12:17:55;;;;;;;;;;;25.80;37.60;;;;;;5046075;28;20039;-77
2023/06/13 12:20:24;;;;;;;;;;;25.90;37.60;;;;;;5052195;28;19929;-78
2023/06/13 12:22:54;;;;;;;;;;;25.90;37.60;;;;;;5045944;28;19991;-77
2023/06/13 12:25:23;;;;;;;;;;;25.90;37.20;;;;;;5050821;28;19933;-77
2023/06/13 12:27:51;;;;;;;;;;;26.10;36.80;;;;;;5050155;28;20408;-78
2023/06/13 12:30:19;;;;;;;;;;;26.10;36.60;;;;;;5046315;28;19935;-78
2023/06/13 12:32:48;;;;;;;;;;;26.10;36.60;;;;;;5052342;28;19935;-77
2023/06/13 12:35:18;;;;;;;;;;;26.20;37.00;;;;;;5052093;28;19932;-77
2023/06/13 12:37:48;;;;;;;;;;;26.20;35.60;;;;;;5047606;28;19939;-77
2023/06/13 12:40:15;;;;;;;;;;;26.30;36.00;;;;;;5048508;28;19932;-77
2023/06/13 12:42:46;;;;;;;;;;;26.30;36.90;;;;;;5048787;28;19995;-77
2023/06/13 12:45:12;;;;;;;;;;;26.40;36.90;;;;;;5053114;28;19929;-79
2023/06/13 12:47:39;;;;;;;;;;;26.40;36.90;;;;;;5041728;28;19933;-77
2023/06/13 12:50:08;;;;;;;;;;;26.50;36.20;;;;;;5049966;28;19933;-79
2023/06/13 12:52:36;;;;;;;;;;;26.50;36.70;;;;;;5052991;28;19928;-77
2023/06/13 12:55:03;;;;;;;;;;;26.50;36.50;;;;;;5049322;28;19928;-77
2023/06/13 12:57:29;;;;;;;;;;;26.60;35.90;;;;;;5055620;28;19932;-77
2023/06/13 12:59:57;;;;;;;;;;;26.60;36.20;;;;;;5046508;28;19971;-77
2023/06/13 13:02:26;;;;;;;;;;;26.70;36.80;;;;;;5050901;28;20679;-77
2023/06/13 13:04:58;;;;;;;;;;;26.70;36.20;;;;;;5046661;28;19935;-80
2023/06/13 13:07:25;;;;;;;;;;;26.80;36.40;;;;;;5047316;28;19940;-78
2023/06/13 13:09:52;;;;;;;;;;;26.80;35.50;;;;;;5042718;28;19934;-77
2023/06/13 13:12:19;;;;;;;;;;;26.80;36.40;;;;;;5047599;28;19951;-79
2023/06/13 13:14:45;;;;;;;;;;;26.90;36.00;;;;;;5047730;28;19932;-78
2023/06/13 13:17:13;;;;;;;;;;;26.90;36.10;;;;;;5049100;28;19928;-78
2023/06/13 13:19:40;;;;;;;;;;;26.90;35.50;;;;;;5047299;28;20340;-78
2023/06/13 13:22:07;;;;;;;;;;;27.00;35.50;;;;;;5047923;28;20186;-77
2023/06/13 13:24:33;;;;;;;;;;;27.10;35.90;;;;;;5049073;28;19938;-78
2023/06/13 13:27:00;;;;;;;;;;;27.10;36.00;;;;;;5046198;28;19974;-79
2023/06/13 13:29:26;;;;;;;;;;;27.20;36.10;;;;;;5047785;28;19944;-77
2023/06/13 13:31:53;;;;;;;;;;;27.20;35.70;;;;;;5048442;28;19932;-77
2023/06/13 13:34:22;;;;;;;;;;;27.30;35.60;;;;;;5048236;28;19951;-77
2023/06/13 13:36:48;;;;;;;;;;;27.30;35.20;;;;;;5052612;28;19929;-78
2023/06/13 13:39:18;;;;;;;;;;;27.40;35.80;;;;;;5047547;28;21375;-78
2023/06/13 13:41:45;;;;;;;;;;;27.40;35.40;;;;;;5046488;28;19939;-78
2023/06/13 13:44:11;;;;;;;;;;;27.50;35.80;;;;;;5045471;28;19928;-75
2023/06/13 13:46:38;;;;;;;;;;;27.60;36.10;;;;;;5046317;28;19933;-75
2023/06/13 13:49:05;;;;;;;;;;;27.60;35.60;;;;;;5050645;28;19932;-75
2023/06/13 13:51:33;;;;;;;;;;;27.60;35.40;;;;;;5045123;28;20007;-74
2023/06/13 13:53:59;;;;;;;;;;;27.70;35.40;;;;;;5044546;28;19929;-77
2023/06/13 13:56:26;;;;;;;;;;;27.70;35.90;;;;;;5048097;28;19928;-74
2023/06/13 13:58:53;;;;;;;;;;;27.80;36.40;;;;;;5042450;28;19932;-73
2023/06/13 14:01:20;;;;;;;;;;;27.80;35.10;;;;;;5040270;28;19939;-72
2023/06/13 14:03:46;;;;;;;;;;;27.90;35.00;;;;;;5047083;28;19938;-72
2023/06/13 14:06:13;;;;;;;;;;;27.90;35.60;;;;;;5041595;28;19940;-72
2023/06/13 14:08:41;;;;;;;;;;;28.00;35.00;;;;;;5052065;28;19932;-73
2023/06/13 14:11:08;;;;;;;;;;;28.00;35.70;;;;;;5046826;28;19933;-73
2023/06/13 14:13:35;;;;;;;;;;;28.10;35.20;;;;;;5046222;28;24169;-72
2023/06/13 14:16:03;;;;;;;;;;;28.10;35.70;;;;;;5047089;28;20802;-71
2023/06/13 14:18:30;;;;;;;;;;;28.20;34.90;;;;;;5051956;28;19975;-72